Duke Field AFS, FL

10:16 PM CDT on August 31, 2015 (GMT -0500)
John King 2nd edition | | Change Station
CLOSE
Current Station
Personal Weather Station
Location: Crestview, FL
Elevation: 138 ft
Nearby Weather Stations

Elev 138 ft 30.72 °N, 86.55 °W | Updated 2 minutes ago

Clear
Clear
74.7 °F
Feels Like 73 °F
N
0.0
Wind Variable Wind from West

Today
High -- | Low -- °F
--% Chance of Precip.
Yesterday
High -- | Low -- °F
Precip. -- in
6:21 AM 7:10 PM
Waning Gibbous, 92% visible
Pressure 30.06 in
Visibility 10.0 miles
Clouds Scattered Clouds 6500 ft
Heat Index 73 °F
Dew Point 72 °F
Humidity 91%
Rainfall 0.00 in
Snow Depth Not available.
UV 0 out of 12
Pollen 7.90 out of 12
Air Quality Not available.
Flu Activity Not available.
METAR KCEW 010253Z AUTO 00000KT 10SM SCT065 25/23 A3007 RMK AO2 SLP179 T02500228 $
Pressure 30.06 in
Visibility 10.0 miles
Clouds Scattered Clouds 6500 ft
Heat Index 73 °F
Dew Point 72 °F
Humidity 91%
Rainfall 0.00 in
Snow Depth Not available.
UV 0 out of 12
Pollen 7.90 out of 12
Air Quality Not available.
Flu Activity Not available.
METAR KCEW 010253Z AUTO 00000KT 10SM SCT065 25/23 A3007 RMK AO2 SLP179 T02500228 $

10-Day Weather Forecast

×

Almanac

Astronomy

Aug. 31, 2015 Rise Set
Actual Time
Civil Twilight
Nautical Twilight
Astronomical Twilight
Moon
Length of Visible Light
Length of Day
Tomorrow will be .
, % of the Moon is Illuminated

Today's Extremes

State Highs State Lows

Community

WunderPhotos

Upload Photos

1,851,471 photos uploaded!

WunderBlogs® & News

Nearby

Air Quality

  Air Quality AQ Index Pollutant
Not available.

Snow Depth

Station Depth Elevation

Earthquake Activity

City Distance Mag. Time & Date
Minimum magnitude displayed is 2.5.

Coastal Water Temperatures

Place Temperature

Stations

Nearby Weather Stations

Station Location Temp. Windchill Dew Point Humidity Wind Precip. Elev Updated Type